Etusivu
METAR-TAF:

METAR-TAF

Lentoasemat :

Vicksburg Tallulah Regional Airport

Tallulah / Vicksburg, Louisiana, Yhdysvallat

Leveyspiiri: 32-20-53N, Pituuspiiri: 091-01-48W, korkeus merenpinnasta: 26 m

Tämänhetkinen sää

Tämä raportti tehtiin 1 tunti ja 0 minuuttia sitten, kello 05.53 UTC
tyyntä
Lämpötila 25°C
Kosteus 94%
Ilmanpaine 1021 hPa
Näkyvyys: 14.5 km
selkeää

METAR: KTVR 140553Z AUTO 00000KT 9SM CLR 25/24 A3015 RMK AO2 SLP216 60000 T02500239 10300 20250 403560228 55000

Aika: 01:53 (06:53 UTC)


TAF: puuttuu

Säähavainnot ja -ennusteet yli 4000 lentoasemalta (METAR- ja TAF-raportit).

Käytössä olevat sääasemat on merkitty karttaan keltaisilla ja punaisilla pisteillä.

Aseta hiiri pisteen päälle nähdäksesi sääaseman nimen.

Klikkaa sitten nähdäksesi säähavainnot ja -ennusteet.

Kartan vaihtaminen: klikkaa mustalla rastilla varustettuja vihreitä pisteitä, niin voit zoomata sisään; viivalla varustettua vihreää pistettä, niin voit zoomata ulos tai vihreitä nuolia, niin pääset viereisille kartoille.


METAR-TAF: